| time (UTC) | temp F | wind direction | speed MPH | gust MPH | rain 1hr in | rain 24hr in | rain mn in | humidity % | barometer mb |
| 20260509234529 | 64 | 214 | 1.0 | 1.0 | 0.00 | 0.37 | 0.37 | 65 | 1007.0 |
| 20260509234027 | 65 | 214 | 2.0 | 3.0 | 0.00 | 0.37 | 0.37 | 63 | 1006.7 |
| 20260509233524 | 65 | 216 | 1.0 | 1.0 | 0.00 | 0.37 | 0.37 | 66 | 1006.9 |
| 20260509233021 | 65 | 215 | 2.0 | 2.0 | 0.00 | 0.37 | 0.37 | 65 | 1006.4 |
| 20260509232518 | 65 | 214 | 0.0 | 0.0 | 0.00 | 0.37 | 0.37 | 65 | 1006.6 |
| 20260509232014 | 65 | 204 | 2.0 | 3.0 | 0.00 | 0.37 | 0.37 | 64 | 1006.5 |
| 20260509231511 | 65 | 203 | 0.0 | 1.0 | 0.00 | 0.37 | 0.37 | 67 | 1006.2 |
| 20260509231009 | 66 | 204 | 1.0 | 1.0 | 0.00 | 0.37 | 0.37 | 65 | 1006.0 |
| 20260509230505 | 66 | 203 | 0.0 | 1.0 | 0.00 | 0.37 | 0.37 | 64 | 1005.9 |
| 20260509230002 | 66 | 185 | 1.0 | 2.0 | 0.00 | 0.37 | 0.37 | 63 | 1006.1 |
| 20260509225458 | 66 | 217 | 2.0 | 2.0 | 0.00 | 0.37 | 0.37 | 64 | 1006.4 |
| 20260509224953 | 66 | 215 | 1.0 | 1.0 | 0.00 | 0.37 | 0.37 | 64 | 1006.5 |
| 20260509224449 | 66 | 215 | 1.0 | 1.0 | 0.00 | 0.37 | 0.37 | 64 | 1006.1 |
| 20260509223946 | 66 | 214 | 3.0 | 5.0 | 0.00 | 0.37 | 0.37 | 62 | 1006.2 |
| 20260509223443 | 65 | 205 | 1.0 | 2.0 | 0.00 | 0.37 | 0.37 | 65 | 1006.1 |
| 20260509222940 | 66 | 180 | 2.0 | 2.0 | 0.00 | 0.37 | 0.37 | 62 | 1005.9 |
| 20260509222435 | 66 | 180 | 2.0 | 2.0 | 0.00 | 0.37 | 0.37 | 63 | 1006.0 |
| 20260509221931 | 66 | 199 | 2.0 | 2.0 | 0.00 | 0.37 | 0.37 | 62 | 1006.2 |
| 20260509221429 | 67 | 199 | 4.0 | 5.0 | 0.00 | 0.37 | 0.37 | 61 | 1006.1 |
| 20260509220924 | 66 | 203 | 3.0 | 3.0 | 0.00 | 0.37 | 0.37 | 61 | 1006.1 |
| 20260509220420 | 66 | 178 | 2.0 | 2.0 | 0.00 | 0.37 | 0.37 | 61 | 1006.0 |
| 20260509215917 | 66 | 197 | 2.0 | 2.0 | 0.00 | 0.37 | 0.37 | 64 | 1006.2 |
| 20260509215412 | 67 | 198 | 2.0 | 3.0 | 0.00 | 0.37 | 0.37 | 62 | 1005.8 |
| 20260509214910 | 67 | 197 | 1.0 | 2.0 | 0.00 | 0.37 | 0.37 | 62 | 1006.1 |
| 20260509214407 | 67 | 165 | 3.0 | 3.0 | 0.00 | 0.37 | 0.37 | 62 | 1006.0 |
| 20260509213904 | 67 | 188 | 1.0 | 1.0 | 0.00 | 0.37 | 0.37 | 62 | 1006.2 |
| 20260509213359 | 66 | 170 | 2.0 | 3.0 | 0.00 | 0.37 | 0.37 | 62 | 1006.0 |
| 20260509212857 | 66 | 240 | 0.0 | 0.0 | 0.00 | 0.37 | 0.37 | 65 | 1005.9 |
| 20260509212354 | 66 | 229 | 0.0 | 1.0 | 0.00 | 0.37 | 0.37 | 64 | 1006.2 |
| 20260509211850 | 66 | 225 | 3.0 | 3.0 | 0.00 | 0.37 | 0.37 | 64 | 1006.1 |
| 20260509211346 | 67 | 209 | 0.0 | 0.0 | 0.00 | 0.37 | 0.37 | 63 | 1006.2 |
| 20260509210843 | 66 | 185 | 2.0 | 3.0 | 0.00 | 0.37 | 0.37 | 67 | 1006.1 |
| 20260509210341 | 66 | 177 | 4.0 | 6.0 | 0.00 | 0.37 | 0.37 | 60 | 1006.1 |
| 20260509205840 | 66 | 221 | 1.0 | 1.0 | 0.00 | 0.37 | 0.37 | 62 | 1006.4 |
| 20260509205335 | 66 | 222 | 2.0 | 2.0 | 0.00 | 0.37 | 0.37 | 62 | 1006.2 |
| 20260509204832 | 66 | 213 | 2.0 | 3.0 | 0.00 | 0.37 | 0.37 | 65 | 1006.2 |
| 20260509204328 | 67 | 213 | 2.0 | 3.0 | 0.00 | 0.37 | 0.37 | 64 | 1006.5 |
| 20260509203824 | 66 | 212 | 3.0 | 3.0 | 0.00 | 0.37 | 0.37 | 64 | 1006.6 |
| 20260509203321 | 66 | 193 | 1.0 | 2.0 | 0.00 | 0.37 | 0.37 | 62 | 1006.7 |
| 20260509202817 | 67 | 170 | 5.0 | 7.0 | 0.00 | 0.37 | 0.37 | 62 | 1006.7 |
| 20260509202314 | 67 | 197 | 1.0 | 1.0 | 0.00 | 0.37 | 0.37 | 60 | 1006.8 |
| 20260509201813 | 66 | 199 | 1.0 | 1.0 | 0.00 | 0.37 | 0.37 | 65 | 1007.0 |
| 20260509201310 | 66 | 188 | 2.0 | 2.0 | 0.00 | 0.37 | 0.37 | 65 | 1007.1 |
| 20260509200806 | 66 | 175 | 2.0 | 2.0 | 0.00 | 0.37 | 0.37 | 64 | 1007.0 |
| 20260509200302 | 66 | 206 | 2.0 | 2.0 | 0.00 | 0.37 | 0.37 | 65 | 1007.2 |
| 20260509195758 | 67 | 136 | 1.0 | 3.0 | 0.00 | 0.37 | 0.37 | 66 | 1007.4 |
| 20260509195254 | 66 | 223 | 2.0 | 2.0 | 0.00 | 0.37 | 0.37 | 64 | 1007.4 |
| 20260509194748 | 66 | 184 | 1.0 | 2.0 | 0.00 | 0.37 | 0.37 | 62 | 1007.2 |
| 20260509194244 | 65 | 178 | 3.0 | 5.0 | 0.00 | 0.37 | 0.37 | 69 | 1007.1 |
| 20260509193741 | 66 | 266 | 0.0 | 1.0 | 0.00 | 0.37 | 0.37 | 68 | 1007.5 |
| 20260509193241 | 66 | 228 | 2.0 | 2.0 | 0.00 | 0.37 | 0.37 | 65 | 1007.7 |
| 20260509192737 | 65 | 212 | 1.0 | 2.0 | 0.00 | 0.37 | 0.37 | 69 | 1007.8 |
| 20260509192232 | 65 | 213 | 2.0 | 2.0 | 0.00 | 0.37 | 0.37 | 67 | 1007.7 |
| 20260509191728 | 66 | 225 | 2.0 | 2.0 | 0.00 | 0.37 | 0.37 | 66 | 1007.6 |
| 20260509191225 | 66 | 224 | 1.0 | 1.0 | 0.00 | 0.37 | 0.37 | 67 | 1007.6 |
| 20260509190721 | 65 | 178 | 1.0 | 1.0 | 0.00 | 0.37 | 0.37 | 66 | 1007.5 |
| 20260509190218 | 65 | 207 | 3.0 | 3.0 | 0.00 | 0.37 | 0.37 | 66 | 1007.3 |
| 20260509185716 | 65 | 204 | 3.0 | 3.0 | 0.00 | 0.37 | 0.37 | 66 | 1007.6 |
| 20260509185212 | 64 | 271 | 0.0 | 1.0 | 0.00 | 0.37 | 0.37 | 72 | 1007.8 |
| 20260509184709 | 64 | 263 | 2.0 | 2.0 | 0.00 | 0.37 | 0.37 | 70 | 1007.8 |
| 20260509184206 | 64 | 212 | 3.0 | 5.0 | 0.00 | 0.37 | 0.37 | 69 | 1008.0 |
| 20260509183702 | 64 | 209 | 2.0 | 3.0 | 0.00 | 0.37 | 0.37 | 75 | 1008.0 |
| 20260509183158 | 64 | 259 | 1.0 | 2.0 | 0.00 | 0.37 | 0.37 | 72 | 1008.1 |
| 20260509182653 | 64 | 245 | 3.0 | 3.0 | 0.00 | 0.37 | 0.37 | 73 | 1008.1 |
| 20260509182151 | 63 | 233 | 1.0 | 1.0 | 0.00 | 0.37 | 0.37 | 76 | 1008.2 |
| 20260509181649 | 63 | 223 | 3.0 | 3.0 | 0.00 | 0.37 | 0.37 | 73 | 1008.1 |
| 20260509181146 | 63 | 239 | 1.0 | 2.0 | 0.00 | 0.37 | 0.37 | 73 | 1007.9 |
| 20260509180643 | 62 | 214 | 2.0 | 2.0 | 0.00 | 0.37 | 0.37 | 75 | 1007.8 |
| 20260509180139 | 63 | 182 | 3.0 | 5.0 | 0.00 | 0.37 | 0.37 | 77 | 1008.0 |
| 20260509175635 | 62 | 208 | 2.0 | 2.0 | 0.00 | 0.37 | 0.37 | 76 | 1007.9 |
| 20260509175132 | 61 | 279 | 1.0 | 1.0 | 0.00 | 0.37 | 0.37 | 83 | 1008.1 |
| 20260509174628 | 61 | 228 | 2.0 | 2.0 | 0.00 | 0.37 | 0.37 | 83 | 1008.2 |
| 20260509174123 | 62 | 264 | 1.0 | 2.0 | 0.00 | 0.37 | 0.37 | 83 | 1008.2 |
| 20260509173619 | 61 | 265 | 0.0 | 1.0 | 0.00 | 0.37 | 0.37 | 83 | 1008.2 |
| 20260509173115 | 62 | 228 | 2.0 | 2.0 | 0.00 | 0.37 | 0.37 | 80 | 1008.3 |
| 20260509172612 | 61 | 175 | 0.0 | 1.0 | 0.00 | 0.37 | 0.37 | 82 | 1008.3 |
| 20260509172108 | 61 | 255 | 1.0 | 1.0 | 0.00 | 0.37 | 0.37 | 88 | 1008.2 |
| 20260509171604 | 60 | 254 | 1.0 | 1.0 | 0.00 | 0.37 | 0.37 | 86 | 1008.4 |
| 20260509171100 | 60 | 221 | 2.0 | 2.0 | 0.00 | 0.37 | 0.37 | 87 | 1008.2 |
| 20260509170557 | 59 | 219 | 0.0 | 1.0 | 0.00 | 0.37 | 0.37 | 90 | 1008.3 |
| 20260509170052 | 58 | 219 | 1.0 | 2.0 | 0.00 | 0.37 | 0.37 | 91 | 1008.4 |
| 20260509165551 | 59 | 263 | 1.0 | 2.0 | 0.07 | 0.37 | 0.37 | 94 | 1008.5 |
| 20260509165047 | 58 | 240 | 1.0 | 1.0 | 0.07 | 0.37 | 0.37 | 97 | 1008.5 |
| 20260509164543 | 57 | 288 | 1.0 | 1.0 | 0.00 | 0.36 | 0.36 | 98 | 1008.7 |
| 20260509164044 | 57 | 305 | 0.0 | 1.0 | 0.00 | 0.36 | 0.36 | 99 | 1009.1 |
| 20260509163543 | 57 | 286 | 0.0 | 1.0 | 0.00 | 0.36 | 0.36 | 99 | 1008.8 |
| 20260509163037 | 55 | 276 | 0.0 | 0.0 | 0.00 | 0.36 | 0.36 | 99 | 1008.7 |
| 20260509162535 | 55 | 292 | 0.0 | 1.0 | 0.00 | 0.36 | 0.36 | 99 | 1008.9 |
| 20260509162031 | 55 | 276 | 0.0 | 0.0 | 0.00 | 0.36 | 0.36 | 99 | 1008.9 |
| 20260509161527 | 54 | 276 | 1.0 | 1.0 | 0.00 | 0.36 | 0.36 | 99 | 1008.8 |
| 20260509161022 | 55 | 275 | 0.0 | 1.0 | 0.05 | 0.36 | 0.36 | 99 | 1008.6 |
| 20260509160518 | 54 | 275 | 1.0 | 1.0 | 0.05 | 0.36 | 0.36 | 99 | 1008.7 |
| 20260509160014 | 54 | 307 | 0.0 | 0.0 | 0.05 | 0.36 | 0.36 | 99 | 1008.3 |
| 20260509155510 | 54 | 276 | 0.0 | 0.0 | 0.00 | 0.35 | 0.35 | 99 | 1008.6 |
| 20260509155006 | 54 | 276 | 0.0 | 0.0 | 0.00 | 0.35 | 0.35 | 99 | 1008.6 |
| 20260509154503 | 54 | 276 | 0.0 | 0.0 | 0.00 | 0.35 | 0.35 | 99 | 1008.2 |
| 20260509154000 | 54 | 276 | 0.0 | 0.0 | 0.00 | 0.35 | 0.35 | 99 | 1008.4 |
| 20260509153457 | 54 | 276 | 0.0 | 0.0 | 0.00 | 0.35 | 0.35 | 99 | 1008.4 |
| 20260509152954 | 54 | 276 | 0.0 | 1.0 | 0.00 | 0.35 | 0.35 | 99 | 1008.5 |
| 20260509152449 | 54 | 276 | 0.0 | 1.0 | 0.07 | 0.35 | 0.35 | 99 | 1008.4 |
| 20260509151947 | 54 | 276 | 0.0 | 0.0 | 0.07 | 0.35 | 0.35 | 99 | 1008.5 |
| 20260509151443 | 53 | 276 | 0.0 | 0.0 | 0.00 | 0.34 | 0.34 | 99 | 1008.6 |
| 20260509150941 | 53 | 276 | 0.0 | 0.0 | 0.00 | 0.34 | 0.34 | 99 | 1008.5 |
| 20260509150438 | 53 | 276 | 0.0 | 0.0 | 0.00 | 0.34 | 0.34 | 99 | 1008.4 |
| 20260509145936 | 53 | 276 | 0.0 | 0.0 | 0.00 | 0.34 | 0.34 | 99 | 1008.6 |
| 20260509145431 | 52 | 276 | 0.0 | 0.0 | 0.00 | 0.34 | 0.34 | 99 | 1008.5 |
| 20260509144927 | 52 | 276 | 0.0 | 0.0 | 0.00 | 0.34 | 0.34 | 99 | 1008.3 |
| 20260509144424 | 52 | 275 | 0.0 | 0.0 | 0.05 | 0.34 | 0.34 | 99 | 1008.6 |
| 20260509143921 | 52 | 276 | 0.0 | 0.0 | 0.05 | 0.34 | 0.34 | 99 | 1008.6 |
| 20260509143418 | 52 | 276 | 0.0 | 0.0 | 0.00 | 0.33 | 0.33 | 99 | 1008.6 |
| 20260509142914 | 52 | 276 | 0.0 | 0.0 | 0.00 | 0.33 | 0.33 | 99 | 1008.7 |
| 20260509142411 | 52 | 276 | 0.0 | 0.0 | 0.00 | 0.33 | 0.33 | 99 | 1008.4 |
| 20260509141906 | 52 | 276 | 0.0 | 1.0 | 0.00 | 0.33 | 0.33 | 99 | 1008.6 |
| 20260509141404 | 52 | 276 | 0.0 | 0.0 | 0.00 | 0.33 | 0.33 | 99 | 1008.6 |
| 20260509140900 | 51 | 276 | 0.0 | 0.0 | 0.07 | 0.33 | 0.33 | 99 | 1008.5 |
| 20260509140357 | 51 | 276 | 0.0 | 0.0 | 0.07 | 0.33 | 0.33 | 99 | 1008.5 |
| 20260509135855 | 51 | 276 | 0.0 | 0.0 | 0.00 | 0.32 | 0.32 | 99 | 1008.4 |
| 20260509135352 | 51 | 276 | 1.0 | 1.0 | 0.00 | 0.32 | 0.32 | 99 | 1008.7 |
| 20260509134849 | 51 | 276 | 0.0 | 0.0 | 0.00 | 0.32 | 0.32 | 99 | 1008.6 |
| 20260509134347 | 51 | 268 | 1.0 | 1.0 | 0.00 | 0.32 | 0.32 | 99 | 1008.5 |
| 20260509133843 | 51 | 276 | 0.0 | 0.0 | 0.00 | 0.32 | 0.32 | 99 | 1008.7 |
| 20260509133340 | 51 | 276 | 0.0 | 0.0 | 0.05 | 0.32 | 0.32 | 99 | 1008.7 |
| 20260509132839 | 51 | 276 | 0.0 | 0.0 | 0.05 | 0.32 | 0.32 | 99 | 1008.6 |
| 20260509132337 | 51 | 276 | 0.0 | 0.0 | 0.00 | 0.31 | 0.31 | 99 | 1008.6 |
| 20260509131834 | 50 | 276 | 0.0 | 1.0 | 0.00 | 0.31 | 0.31 | 99 | 1009.1 |
| 20260509131330 | 50 | 276 | 0.0 | 0.0 | 0.00 | 0.31 | 0.31 | 99 | 1008.9 |
| 20260509130827 | 50 | 276 | 0.0 | 0.0 | 0.07 | 0.31 | 0.31 | 99 | 1008.9 |
| 20260509130323 | 50 | 276 | 0.0 | 0.0 | 0.07 | 0.31 | 0.31 | 99 | 1008.7 |
| 20260509125819 | 50 | 276 | 0.0 | 0.0 | 0.00 | 0.30 | 0.30 | 99 | 1008.8 |
| 20260509125316 | 50 | 276 | 0.0 | 0.0 | 0.00 | 0.30 | 0.30 | 99 | 1008.7 |
| 20260509124812 | 50 | 276 | 0.0 | 0.0 | 0.00 | 0.30 | 0.30 | 99 | 1008.7 |
| 20260509124309 | 50 | 276 | 0.0 | 0.0 | 0.00 | 0.30 | 0.30 | 99 | 1008.6 |
| 20260509123808 | 50 | 276 | 0.0 | 0.0 | 0.05 | 0.30 | 0.30 | 99 | 1008.9 |
| 20260509123304 | 50 | 276 | 0.0 | 0.0 | 0.05 | 0.30 | 0.30 | 99 | 1008.8 |
| 20260509122800 | 50 | 276 | 0.0 | 0.0 | 0.00 | 0.29 | 0.29 | 99 | 1008.8 |
| 20260509122257 | 50 | 276 | 0.0 | 0.0 | 0.00 | 0.29 | 0.29 | 99 | 1008.7 |
| 20260509121754 | 50 | 276 | 0.0 | 0.0 | 0.00 | 0.29 | 0.29 | 99 | 1008.9 |
| 20260509121251 | 50 | 276 | 0.0 | 1.0 | 0.07 | 0.29 | 0.29 | 99 | 1009.1 |
| 20260509120749 | 50 | 276 | 0.0 | 0.0 | 0.07 | 0.29 | 0.29 | 99 | 1009.0 |
| 20260509120247 | 50 | 276 | 0.0 | 0.0 | 0.00 | 0.28 | 0.28 | 99 | 1009.1 |
| 20260509115745 | 50 | 276 | 0.0 | 0.0 | 0.00 | 0.28 | 0.28 | 99 | 1009.1 |
| 20260509115241 | 50 | 273 | 1.0 | 1.0 | 0.05 | 0.28 | 0.28 | 99 | 1008.9 |
| 20260509114739 | 50 | 275 | 1.0 | 1.0 | 0.05 | 0.28 | 0.28 | 99 | 1009.0 |
| 20260509114238 | 50 | 276 | 0.0 | 0.0 | 0.00 | 0.27 | 0.27 | 99 | 1008.8 |
| 20260509113736 | 50 | 274 | 1.0 | 1.0 | 0.00 | 0.27 | 0.27 | 99 | 1008.8 |
| 20260509113233 | 50 | 276 | 0.0 | 1.0 | 0.07 | 0.27 | 0.27 | 99 | 1008.9 |
| 20260509112730 | 50 | 276 | 0.0 | 0.0 | 0.07 | 0.27 | 0.27 | 99 | 1009.1 |
| 20260509112227 | 50 | 276 | 0.0 | 0.0 | 0.00 | 0.26 | 0.26 | 99 | 1009.0 |
| 20260509111724 | 50 | 276 | 0.0 | 0.0 | 0.00 | 0.26 | 0.26 | 99 | 1009.0 |
| 20260509111221 | 50 | 276 | 0.0 | 0.0 | 0.07 | 0.26 | 0.26 | 99 | 1008.9 |
| 20260509110718 | 50 | 276 | 0.0 | 0.0 | 0.07 | 0.26 | 0.26 | 99 | 1008.8 |
| 20260509110215 | 50 | 276 | 0.0 | 0.0 | 0.07 | 0.26 | 0.26 | 99 | 1009.1 |
| 20260509105713 | 50 | 276 | 0.0 | 0.0 | 0.00 | 0.25 | 0.25 | 99 | 1009.0 |
| 20260509105204 | 50 | 276 | 0.0 | 0.0 | 0.05 | 0.25 | 0.25 | 99 | 1009.0 |
| 20260509104701 | 50 | 276 | 0.0 | 0.0 | 0.05 | 0.25 | 0.25 | 99 | 1008.9 |
| 20260509104158 | 50 | 276 | 0.0 | 0.0 | 0.05 | 0.25 | 0.25 | 99 | 1008.9 |
| 20260509103656 | 49 | 272 | 1.0 | 1.0 | 0.00 | 0.24 | 0.24 | 99 | 1008.9 |
| 20260509103154 | 49 | 276 | 0.0 | 0.0 | 0.00 | 0.24 | 0.24 | 99 | 1008.9 |
| 20260509102652 | 49 | 275 | 1.0 | 1.0 | 0.07 | 0.24 | 0.24 | 99 | 1008.8 |
| 20260509102148 | 49 | 276 | 0.0 | 0.0 | 0.07 | 0.24 | 0.24 | 99 | 1009.0 |
| 20260509101644 | 49 | 276 | 0.0 | 0.0 | 0.00 | 0.23 | 0.23 | 99 | 1009.0 |
| 20260509101141 | 49 | 264 | 1.0 | 2.0 | 0.05 | 0.23 | 0.23 | 99 | 1008.9 |
| 20260509100638 | 49 | 275 | 0.0 | 0.0 | 0.05 | 0.23 | 0.23 | 99 | 1008.9 |
| 20260509100135 | 49 | 283 | 0.0 | 0.0 | 0.00 | 0.22 | 0.22 | 99 | 1009.0 |
| 20260509095632 | 49 | 283 | 0.0 | 0.0 | 0.00 | 0.22 | 0.22 | 99 | 1009.0 |
| 20260509095129 | 49 | 283 | 0.0 | 0.0 | 0.07 | 0.22 | 0.22 | 99 | 1008.8 |
| 20260509094626 | 49 | 282 | 0.0 | 0.0 | 0.07 | 0.22 | 0.22 | 99 | 1009.2 |
| 20260509094123 | 49 | 276 | 0.0 | 1.0 | 0.00 | 0.21 | 0.21 | 99 | 1009.0 |
| 20260509093622 | 49 | 267 | 1.0 | 1.0 | 0.05 | 0.21 | 0.21 | 99 | 1009.2 |
| 20260509093118 | 49 | 267 | 0.0 | 1.0 | 0.05 | 0.21 | 0.21 | 99 | 1009.2 |
| 20260509092616 | 49 | 254 | 1.0 | 2.0 | 0.00 | 0.20 | 0.20 | 99 | 1009.1 |
| 20260509092114 | 49 | 248 | 1.0 | 1.0 | 0.07 | 0.20 | 0.20 | 99 | 1009.2 |
| 20260509091612 | 49 | 226 | 2.0 | 2.0 | 0.07 | 0.20 | 0.20 | 99 | 1009.0 |
| 20260509091108 | 49 | 258 | 1.0 | 1.0 | 0.07 | 0.20 | 0.20 | 99 | 1009.2 |
| 20260509090606 | 49 | 254 | 1.0 | 1.0 | 0.00 | 0.19 | 0.19 | 99 | 1009.4 |
| 20260509085600 | 49 | 307 | 2.0 | 2.0 | 0.05 | 0.19 | 0.19 | 99 | 1009.4 |
| 20260509085056 | 49 | 269 | 0.0 | 0.0 | 0.00 | 0.18 | 0.18 | 99 | 1009.3 |
| 20260509084553 | 49 | 208 | 2.0 | 2.0 | 0.07 | 0.18 | 0.18 | 99 | 1009.6 |
| 20260509084050 | 49 | 200 | 2.0 | 2.0 | 0.07 | 0.18 | 0.18 | 99 | 1009.4 |
| 20260509083547 | 49 | 254 | 2.0 | 2.0 | 0.00 | 0.17 | 0.17 | 99 | 1009.6 |
| 20260509083044 | 49 | 270 | 0.0 | 0.0 | 0.05 | 0.17 | 0.17 | 99 | 1009.6 |
| 20260509082542 | 49 | 250 | 1.0 | 1.0 | 0.05 | 0.17 | 0.17 | 99 | 1009.3 |
| 20260509082039 | 49 | 250 | 1.0 | 1.0 | 0.00 | 0.16 | 0.16 | 99 | 1009.6 |
| 20260509081536 | 49 | 250 | 1.0 | 1.0 | 0.07 | 0.16 | 0.16 | 99 | 1009.7 |
| 20260509081033 | 49 | 249 | 1.0 | 1.0 | 0.07 | 0.16 | 0.16 | 99 | 1009.4 |
| 20260509080531 | 49 | 176 | 2.0 | 2.0 | 0.00 | 0.15 | 0.15 | 99 | 1009.7 |
| 20260509080029 | 49 | 144 | 1.0 | 1.0 | 0.05 | 0.15 | 0.15 | 99 | 1009.8 |
| 20260509075526 | 49 | 144 | 0.0 | 0.0 | 0.05 | 0.15 | 0.15 | 99 | 1009.9 |
| 20260509075024 | 49 | 144 | 0.0 | 0.0 | 0.05 | 0.15 | 0.15 | 99 | 1009.6 |
| 20260509074520 | 49 | 144 | 0.0 | 0.0 | 0.00 | 0.14 | 0.14 | 99 | 1009.8 |
| 20260509074017 | 49 | 144 | 0.0 | 0.0 | 0.07 | 0.14 | 0.14 | 99 | 1009.8 |
| 20260509073513 | 49 | 144 | 0.0 | 0.0 | 0.07 | 0.14 | 0.14 | 99 | 1009.4 |
| 20260509073010 | 49 | 144 | 0.0 | 0.0 | 0.00 | 0.13 | 0.13 | 99 | 1009.8 |
| 20260509072507 | 49 | 144 | 1.0 | 1.0 | 0.07 | 0.13 | 0.13 | 99 | 1009.4 |
| 20260509072003 | 49 | 144 | 0.0 | 1.0 | 0.07 | 0.13 | 0.13 | 99 | 1009.4 |
| 20260509071500 | 49 | 144 | 1.0 | 1.0 | 0.00 | 0.12 | 0.12 | 99 | 1009.4 |
| 20260509070958 | 49 | 145 | 0.0 | 1.0 | 0.00 | 0.12 | 0.12 | 99 | 1009.6 |
| 20260509070455 | 49 | 149 | 2.0 | 2.0 | 0.05 | 0.12 | 0.12 | 99 | 1009.8 |
| 20260509065950 | 49 | 149 | 1.0 | 2.0 | 0.05 | 0.12 | 0.12 | 99 | 1009.7 |
| 20260509065446 | 49 | 154 | 1.0 | 1.0 | 0.00 | 0.11 | 0.11 | 99 | 1009.7 |
| 20260509064942 | 49 | 154 | 0.0 | 0.0 | 0.07 | 0.11 | 0.11 | 99 | 1010.0 |
| 20260509064440 | 49 | 188 | 2.0 | 2.0 | 0.07 | 0.11 | 0.11 | 99 | 1010.0 |
| 20260509063938 | 49 | 272 | 0.0 | 0.0 | 0.00 | 0.10 | 0.10 | 99 | 1010.1 |
| 20260509063433 | 49 | 256 | 1.0 | 1.0 | 0.05 | 0.10 | 0.10 | 99 | 1010.0 |
| 20260509062930 | 49 | 232 | 1.0 | 2.0 | 0.05 | 0.10 | 0.10 | 99 | 1009.9 |
| 20260509062428 | 49 | 270 | 0.0 | 0.0 | 0.00 | 0.09 | 0.09 | 99 | 1010.2 |
| 20260509061925 | 49 | 261 | 1.0 | 1.0 | 0.07 | 0.09 | 0.09 | 99 | 1010.4 |
| 20260509061423 | 49 | 256 | 0.0 | 1.0 | 0.07 | 0.09 | 0.09 | 99 | 1010.4 |
| 20260509060919 | 49 | 120 | 0.0 | 1.0 | 0.00 | 0.08 | 0.08 | 99 | 1010.3 |
| 20260509060417 | 49 | 119 | 1.0 | 1.0 | 0.05 | 0.08 | 0.08 | 99 | 1010.5 |
| 20260509055912 | 49 | 119 | 1.0 | 1.0 | 0.05 | 0.08 | 0.08 | 99 | 1010.5 |
| 20260509055407 | 49 | 144 | 2.0 | 2.0 | 0.05 | 0.08 | 0.08 | 99 | 1010.5 |
| 20260509054904 | 49 | 144 | 1.0 | 1.0 | 0.00 | 0.07 | 0.07 | 99 | 1010.5 |
| 20260509054401 | 49 | 145 | 1.0 | 1.0 | 0.07 | 0.07 | 0.07 | 99 | 1010.6 |
| 20260509053859 | 49 | 145 | 1.0 | 1.0 | 0.07 | 0.07 | 0.07 | 99 | 1011.1 |
| 20260509053356 | 49 | 144 | 1.0 | 1.0 | 0.00 | 0.06 | 0.06 | 99 | 1011.2 |
| 20260509052855 | 49 | 142 | 1.0 | 1.0 | 0.05 | 0.06 | 0.06 | 99 | 1011.0 |
| 20260509052351 | 49 | 141 | 1.0 | 1.0 | 0.05 | 0.06 | 0.06 | 99 | 1011.0 |
| 20260509051849 | 49 | 141 | 1.0 | 2.0 | 0.00 | 0.05 | 0.05 | 99 | 1011.1 |
| 20260509051347 | 49 | 140 | 1.0 | 1.0 | 0.07 | 0.05 | 0.05 | 99 | 1011.4 |
| 20260509050844 | 49 | 140 | 0.0 | 0.0 | 0.07 | 0.05 | 0.05 | 99 | 1011.1 |
| 20260509050340 | 49 | 135 | 1.0 | 2.0 | 0.00 | 0.04 | 0.04 | 99 | 1011.5 |
| 20260509045837 | 49 | 135 | 1.0 | 1.0 | 0.05 | 0.04 | 0.04 | 99 | 1011.4 |
| 20260509045334 | 49 | 135 | 1.0 | 1.0 | 0.05 | 0.04 | 0.04 | 99 | 1011.2 |
| 20260509044831 | 49 | 135 | 1.0 | 1.0 | 0.00 | 0.03 | 0.03 | 99 | 1011.2 |
| 20260509044329 | 49 | 135 | 1.0 | 1.0 | 0.07 | 0.03 | 0.03 | 99 | 1011.3 |
| 20260509043825 | 49 | 134 | 2.0 | 2.0 | 0.07 | 0.03 | 0.03 | 99 | 1011.2 |
| 20260509043321 | 49 | 140 | 1.0 | 1.0 | 0.07 | 0.02 | 0.02 | 99 | 1011.2 |
| 20260509042817 | 49 | 143 | 2.0 | 2.0 | 0.07 | 0.02 | 0.02 | 99 | 1011.3 |
| 20260509042314 | 49 | 145 | 0.0 | 0.0 | 0.07 | 0.02 | 0.02 | 99 | 1011.9 |
| 20260509041810 | 49 | 144 | 0.0 | 0.0 | 0.05 | 0.01 | 0.01 | 99 | 1011.8 |
| 20260509041308 | 49 | 143 | 3.0 | 3.0 | 0.05 | 0.01 | 0.01 | 99 | 1011.7 |
| 20260509040806 | 49 | 275 | 0.0 | 0.0 | 0.00 | 0.00 | 0.00 | 99 | 1011.6 |
| 20260509040303 | 49 | 278 | 0.0 | 0.0 | 0.00 | 0.00 | 0.00 | 99 | 1011.7 |
| 20260509035800 | 49 | 232 | 1.0 | 1.0 | 0.00 | 0.27 | 0.27 | 99 | 1011.5 |
| 20260509035257 | 49 | 126 | 0.0 | 1.0 | 0.00 | 0.27 | 0.27 | 99 | 1011.9 |
| 20260509034753 | 49 | 185 | 2.0 | 3.0 | 0.00 | 0.27 | 0.27 | 99 | 1011.7 |
| 20260509034251 | 49 | 199 | 1.0 | 1.0 | 0.07 | 0.27 | 0.27 | 99 | 1011.8 |
| 20260509033748 | 49 | 184 | 2.0 | 2.0 | 0.07 | 0.27 | 0.27 | 99 | 1011.9 |
| 20260509033245 | 49 | 172 | 1.0 | 1.0 | 0.00 | 0.26 | 0.26 | 99 | 1011.7 |
| 20260509032741 | 49 | 270 | 1.0 | 1.0 | 0.00 | 0.26 | 0.26 | 99 | 1011.9 |
| 20260509032239 | 49 | 261 | 1.0 | 2.0 | 0.05 | 0.26 | 0.26 | 99 | 1012.0 |
| 20260509031736 | 49 | 267 | 1.0 | 1.0 | 0.05 | 0.26 | 0.26 | 99 | 1011.9 |
| 20260509031234 | 49 | 278 | 0.0 | 0.0 | 0.00 | 0.25 | 0.25 | 99 | 1012.0 |
| 20260509030731 | 49 | 205 | 2.0 | 2.0 | 0.07 | 0.25 | 0.25 | 99 | 1012.1 |
| 20260509030229 | 49 | 270 | 1.0 | 1.0 | 0.07 | 0.25 | 0.25 | 99 | 1012.3 |
| 20260509025726 | 49 | 268 | 1.0 | 1.0 | 0.00 | 0.24 | 0.24 | 99 | 1012.3 |
| 20260509025221 | 49 | 251 | 1.0 | 2.0 | 0.05 | 0.24 | 0.24 | 99 | 1012.1 |
| 20260509024717 | 49 | 270 | 1.0 | 1.0 | 0.05 | 0.24 | 0.24 | 99 | 1012.2 |
| 20260509024212 | 49 | 277 | 1.0 | 1.0 | 0.00 | 0.23 | 0.23 | 99 | 1012.4 |
| 20260509023710 | 49 | 266 | 1.0 | 1.0 | 0.07 | 0.23 | 0.23 | 99 | 1012.1 |
| 20260509023207 | 49 | 261 | 1.0 | 1.0 | 0.07 | 0.23 | 0.23 | 99 | 1012.4 |
| 20260509022703 | 49 | 237 | 1.0 | 1.0 | 0.05 | 0.22 | 0.22 | 99 | 1012.3 |
| 20260509022201 | 50 | 272 | 1.0 | 1.0 | 0.05 | 0.22 | 0.22 | 99 | 1012.6 |
| 20260509021658 | 50 | 272 | 1.0 | 1.0 | 0.00 | 0.21 | 0.21 | 99 | 1012.3 |
| 20260509021155 | 50 | 276 | 1.0 | 1.0 | 0.07 | 0.21 | 0.21 | 99 | 1012.5 |
| 20260509020653 | 50 | 290 | 1.0 | 1.0 | 0.07 | 0.21 | 0.21 | 99 | 1012.6 |
| 20260509020150 | 50 | 290 | 1.0 | 1.0 | 0.05 | 0.20 | 0.20 | 99 | 1012.4 |
| 20260509015648 | 50 | 290 | 0.0 | 0.0 | 0.05 | 0.20 | 0.20 | 99 | 1012.6 |
| 20260509015146 | 50 | 290 | 0.0 | 0.0 | 0.07 | 0.19 | 0.19 | 99 | 1012.5 |
| 20260509014642 | 50 | 290 | 0.0 | 0.0 | 0.07 | 0.19 | 0.19 | 99 | 1012.6 |
| 20260509014139 | 50 | 290 | 0.0 | 0.0 | 0.05 | 0.18 | 0.18 | 99 | 1012.7 |
| 20260509013636 | 50 | 287 | 0.0 | 0.0 | 0.05 | 0.18 | 0.18 | 99 | 1012.4 |
| 20260509013131 | 50 | 299 | 0.0 | 0.0 | 0.07 | 0.17 | 0.17 | 98 | 1012.6 |
| 20260509012628 | 50 | 313 | 0.0 | 0.0 | 0.07 | 0.17 | 0.17 | 98 | 1012.4 |
| 20260509012125 | 50 | 314 | 0.0 | 0.0 | 0.00 | 0.16 | 0.16 | 98 | 1012.4 |
| 20260509011623 | 50 | 314 | 0.0 | 0.0 | 0.00 | 0.16 | 0.16 | 98 | 1012.4 |
| 20260509011120 | 49 | 314 | 0.0 | 0.0 | 0.00 | 0.16 | 0.16 | 98 | 1012.2 |
| 20260509010618 | 49 | 314 | 0.0 | 0.0 | 0.00 | 0.16 | 0.16 | 98 | 1012.2 |
| 20260509010114 | 49 | 314 | 0.0 | 0.0 | 0.07 | 0.16 | 0.16 | 98 | 1011.9 |
| 20260509005612 | 49 | 314 | 0.0 | 0.0 | 0.07 | 0.16 | 0.16 | 98 | 1011.9 |
| 20260509005107 | 49 | 314 | 0.0 | 0.0 | 0.00 | 0.15 | 0.15 | 98 | 1011.8 |
| 20260509004604 | 50 | 314 | 0.0 | 0.0 | 0.00 | 0.15 | 0.15 | 98 | 1011.6 |
| 20260509004101 | 50 | 314 | 0.0 | 0.0 | 0.00 | 0.15 | 0.15 | 98 | 1011.6 |
| 20260509003559 | 50 | 314 | 0.0 | 0.0 | 0.00 | 0.15 | 0.15 | 98 | 1011.3 |
| 20260509003056 | 50 | 314 | 0.0 | 0.0 | 0.05 | 0.15 | 0.15 | 97 | 1011.3 |
| 20260509002554 | 50 | 314 | 0.0 | 0.0 | 0.05 | 0.15 | 0.15 | 97 | 1011.4 |
| 20260509002051 | 50 | 314 | 0.0 | 0.0 | 0.00 | 0.14 | 0.14 | 97 | 1011.6 |
| 20260509001548 | 50 | 314 | 0.0 | 0.0 | 0.00 | 0.14 | 0.14 | 97 | 1011.5 |
| 20260509001044 | 50 | 314 | 0.0 | 0.0 | 0.00 | 0.14 | 0.14 | 97 | 1011.7 |
| 20260509000543 | 50 | 314 | 0.0 | 0.0 | 0.07 | 0.14 | 0.14 | 97 | 1011.5 |
| 20260509000038 | 49 | 314 | 0.0 | 0.0 | 0.12 | 0.14 | 0.14 | 97 | 1011.7 |
| 20260508235536 | 50 | 314 | 0.0 | 0.0 | 0.05 | 0.13 | 0.13 | 96 | 1011.5 |
| 20260508235032 | 50 | 314 | 0.0 | 0.0 | 0.00 | 0.12 | 0.12 | 96 | 1011.6 |